createdAt,value
2024-03-05T00:01:39.053Z,98927.66
2024-03-05T00:04:06.673Z,98935.75
2024-03-05T00:06:34.365Z,98945.09
2024-03-05T00:09:01.595Z,98934.66
2024-03-05T00:11:29.061Z,98938.59
2024-03-05T00:13:56.891Z,98939.25
2024-03-05T00:16:26.454Z,98946.38
2024-03-05T00:18:53.401Z,98953.91
2024-03-05T00:21:20.915Z,98944.44
2024-03-05T00:23:48.014Z,98942.75
2024-03-05T00:26:16.093Z,98943.69
2024-03-05T00:28:43.682Z,98952.06
2024-03-05T00:31:11.475Z,98960.78
2024-03-05T00:33:38.589Z,98949.09
2024-03-05T00:36:06.376Z,98955.56
2024-03-05T00:38:34.443Z,98953.09
2024-03-05T00:41:02.261Z,98951.91
2024-03-05T00:43:29.180Z,98958.41
2024-03-05T00:45:56.577Z,98954.56
2024-03-05T00:48:23.724Z,98963.16
2024-03-05T00:50:51.991Z,98956.66
2024-03-05T00:53:19.380Z,98956.44
2024-03-05T00:55:46.686Z,98964.44
2024-03-05T00:58:14.053Z,98959.19
2024-03-05T01:00:41.406Z,98962.69
2024-03-05T01:03:08.467Z,98962.47
2024-03-05T01:05:35.881Z,98961.69
2024-03-05T01:08:04.196Z,98968.13
2024-03-05T01:10:31.444Z,98967.72
2024-03-05T01:12:58.499Z,98974.56
2024-03-05T01:15:25.719Z,98972.63
2024-03-05T01:17:53.156Z,98962.78
2024-03-05T01:20:21.561Z,98971.41
2024-03-05T01:22:48.822Z,98968.44
2024-03-05T01:25:18.239Z,98963.75
2024-03-05T01:27:45.526Z,98958.53
2024-03-05T01:30:13.100Z,98958.75
2024-03-05T01:32:40.098Z,98956.97
2024-03-05T01:35:11.416Z,98953.47
2024-03-05T01:37:38.806Z,98958.97
2024-03-05T01:40:06.533Z,98953.97
2024-03-05T01:42:33.801Z,98948.16
2024-03-05T01:45:01.182Z,98949.94
2024-03-05T01:47:28.405Z,98953.91
2024-03-05T01:49:56.577Z,98943.16
2024-03-05T01:52:24.499Z,98950.41
2024-03-05T01:54:56.781Z,98954.94
2024-03-05T01:57:25.087Z,98949.63
2024-03-05T01:59:52.290Z,98951.44
2024-03-05T02:02:19.245Z,98955.25
2024-03-05T02:04:47.127Z,98948.47
2024-03-05T02:07:14.453Z,98952.19
2024-03-05T02:09:42.474Z,98957.91
2024-03-05T02:12:11.847Z,98958.66
2024-03-05T02:14:39.077Z,98957.31
2024-03-05T02:17:06.180Z,98953.91
2024-03-05T02:19:34.810Z,98960.34
2024-03-05T02:22:04.315Z,98954.88
2024-03-05T02:24:34.420Z,98971.97
2024-03-05T02:27:03.987Z,98962.06
2024-03-05T02:29:32.540Z,98972.72
2024-03-05T02:31:59.701Z,98973.81
2024-03-05T02:34:27.394Z,98965.84
2024-03-05T02:36:54.430Z,98979.19
2024-03-05T02:39:24.355Z,98978.88
2024-03-05T02:41:51.339Z,98977.94
2024-03-05T02:44:18.628Z,98985.97
2024-03-05T02:46:48.094Z,98985.44
2024-03-05T02:49:17.971Z,98995.28
2024-03-05T02:51:49.032Z,98990.19
2024-03-05T02:54:16.520Z,98994.94
2024-03-05T02:56:43.600Z,99000.53
2024-03-05T02:59:10.845Z,99002.69
2024-03-05T03:01:38.109Z,99003.44
2024-03-05T03:04:06.768Z,98996.75
2024-03-05T03:06:34.163Z,99001.03
2024-03-05T03:09:04.440Z,99002.00
2024-03-05T03:11:31.649Z,99006.41
2024-03-05T03:13:58.574Z,99007.13
2024-03-05T03:16:25.897Z,99005.72
2024-03-05T03:18:55.307Z,99016.91
2024-03-05T03:21:23.756Z,99008.50
2024-03-05T03:23:50.642Z,99010.06
2024-03-05T03:26:18.048Z,99014.53
2024-03-05T03:28:45.052Z,99008.97
2024-03-05T03:31:12.896Z,99017.13
2024-03-05T03:33:40.745Z,99024.88
2024-03-05T03:36:08.631Z,99023.38
2024-03-05T03:38:35.727Z,99024.63
2024-03-05T03:41:03.099Z,99027.91
2024-03-05T03:43:30.103Z,99030.91
2024-03-05T03:45:58.031Z,99023.31
2024-03-05T03:48:25.594Z,99020.41
2024-03-05T03:50:52.974Z,99027.91
2024-03-05T03:53:19.885Z,99031.19
2024-03-05T03:55:47.396Z,99024.34
2024-03-05T03:58:14.338Z,99025.63
2024-03-05T04:00:41.683Z,99023.88
2024-03-05T04:03:08.553Z,99016.00
2024-03-05T04:05:38.135Z,99026.84
2024-03-05T04:08:05.520Z,99026.50
2024-03-05T04:10:33.038Z,99027.59
2024-03-05T04:12:59.954Z,99030.56
2024-03-05T04:15:27.097Z,99029.19
2024-03-05T04:17:54.167Z,99035.91
2024-03-05T04:20:21.678Z,99033.50
2024-03-05T04:22:48.846Z,99040.28
2024-03-05T04:25:17.262Z,99046.28
2024-03-05T04:27:47.845Z,99047.75
2024-03-05T04:30:15.369Z,99054.22
2024-03-05T04:32:58.906Z,99055.53
2024-03-05T04:35:29.688Z,99056.16
2024-03-05T04:37:57.707Z,99049.84
2024-03-05T04:40:25.168Z,99055.88
2024-03-05T04:42:52.164Z,99054.88
2024-03-05T04:45:19.531Z,99060.97
2024-03-05T04:47:46.593Z,99056.63
2024-03-05T04:50:16.464Z,99061.41
2024-03-05T04:52:44.081Z,99061.44
2024-03-05T04:55:14.290Z,99051.22
2024-03-05T04:57:43.330Z,99057.25
2024-03-05T05:00:21.522Z,99059.41
2024-03-05T05:02:50.453Z,99058.13
2024-03-05T05:05:18.235Z,99059.56
2024-03-05T05:07:48.033Z,99065.47
2024-03-05T05:10:15.934Z,99055.81
2024-03-05T05:12:44.912Z,99067.69
2024-03-05T05:15:13.662Z,99072.84
2024-03-05T05:17:41.017Z,99071.72
2024-03-05T05:20:09.504Z,99073.16
2024-03-05T05:22:40.011Z,99077.34
2024-03-05T05:25:07.699Z,99070.78
2024-03-05T05:27:36.530Z,99070.19
2024-03-05T05:30:13.826Z,99080.25
2024-03-05T05:32:41.846Z,99076.75
2024-03-05T05:35:09.826Z,99074.81
2024-03-05T05:37:38.276Z,99082.88
2024-03-05T05:40:07.108Z,99083.22
2024-03-05T05:42:34.287Z,99089.56
2024-03-05T05:45:01.868Z,99085.91
2024-03-05T05:47:29.288Z,99085.91
2024-03-05T05:49:56.839Z,99089.91
2024-03-05T05:52:23.961Z,99092.97
2024-03-05T05:54:55.813Z,99099.00
2024-03-05T05:57:22.761Z,99100.50
2024-03-05T05:59:50.035Z,99100.81
2024-03-05T06:02:20.771Z,99107.97
2024-03-05T06:04:48.160Z,99114.16
2024-03-05T06:07:15.338Z,99116.91
2024-03-05T06:09:42.716Z,99116.09
2024-03-05T06:12:09.669Z,99121.06
2024-03-05T06:14:37.439Z,99124.13
2024-03-05T06:17:04.684Z,99136.97
2024-03-05T06:19:32.106Z,99133.91
2024-03-05T06:21:59.117Z,99141.47
2024-03-05T06:24:29.926Z,99134.00
2024-03-05T06:26:57.451Z,99144.75
2024-03-05T06:29:25.223Z,99152.75
2024-03-05T06:31:52.406Z,99153.28
2024-03-05T06:34:20.309Z,99154.56
2024-03-05T06:36:50.465Z,99161.31
2024-03-05T06:39:30.611Z,99165.72
2024-03-05T06:42:01.037Z,99169.81
2024-03-05T06:44:37.667Z,99165.00
2024-03-05T06:47:06.092Z,99172.56
2024-03-05T06:49:41.278Z,99166.41
2024-03-05T06:52:35.166Z,99179.81
2024-03-05T06:55:21.410Z,99186.19
2024-03-05T06:57:48.417Z,99188.31
2024-03-05T07:00:19.008Z,99193.44
2024-03-05T07:02:46.040Z,99187.69
2024-03-05T07:05:13.537Z,99195.94
2024-03-05T07:07:41.124Z,99200.19
2024-03-05T07:10:15.423Z,99200.72
2024-03-05T07:12:46.307Z,99195.94
2024-03-05T07:15:15.973Z,99202.63
2024-03-05T07:17:45.771Z,99207.84
2024-03-05T07:20:33.461Z,99216.31
2024-03-05T07:23:00.756Z,99214.84
2024-03-05T07:25:28.195Z,99210.53
2024-03-05T07:27:56.060Z,99217.88
2024-03-05T07:30:23.311Z,99223.81
2024-03-05T07:32:50.431Z,99227.06
2024-03-05T07:35:21.044Z,99220.03
2024-03-05T07:37:50.716Z,99227.25
2024-03-05T07:40:21.809Z,99231.38
2024-03-05T07:42:54.836Z,99230.84
2024-03-05T07:45:23.271Z,99230.41
2024-03-05T07:47:51.376Z,99227.31
2024-03-05T07:50:18.582Z,99233.56
2024-03-05T07:52:48.970Z,99238.91
2024-03-05T07:55:16.713Z,99241.69
2024-03-05T07:57:44.417Z,99244.34
2024-03-05T08:00:15.491Z,99244.47
2024-03-05T08:02:46.312Z,99245.00
2024-03-05T08:05:18.646Z,99240.22
2024-03-05T08:07:46.703Z,99244.47
2024-03-05T08:10:14.160Z,99248.63
2024-03-05T08:12:45.469Z,99248.75
2024-03-05T08:15:16.627Z,99254.44
2024-03-05T08:17:47.638Z,99250.19
2024-03-05T08:20:15.519Z,99254.03
2024-03-05T08:22:43.886Z,99251.03
2024-03-05T08:25:10.752Z,99254.19
2024-03-05T08:27:39.673Z,99246.38
2024-03-05T08:30:11.260Z,99251.94
2024-03-05T08:32:39.089Z,99250.50
2024-03-05T08:35:06.973Z,99248.91
2024-03-05T08:37:37.221Z,99254.66
2024-03-05T08:40:10.788Z,99255.97
2024-03-05T08:42:38.247Z,99252.66
2024-03-05T08:45:05.690Z,99252.53
2024-03-05T08:47:34.946Z,99260.50
2024-03-05T08:50:02.050Z,99258.03
2024-03-05T08:52:29.574Z,99261.31
2024-03-05T08:54:57.219Z,99261.84
2024-03-05T08:57:26.973Z,99272.66
2024-03-05T08:59:54.349Z,99275.63
2024-03-05T09:02:21.937Z,99274.56
2024-03-05T09:04:50.136Z,99265.47
2024-03-05T09:07:19.119Z,99278.88
2024-03-05T09:09:46.336Z,99276.13
2024-03-05T09:12:15.187Z,99271.47
2024-03-05T09:14:45.543Z,99278.28
2024-03-05T09:17:12.981Z,99282.09
2024-03-05T09:19:40.081Z,99289.56
2024-03-05T09:22:07.510Z,99289.16
2024-03-05T09:24:34.556Z,99297.94
2024-03-05T09:27:02.072Z,99286.19
2024-03-05T09:29:31.611Z,99293.41
2024-03-05T09:32:04.034Z,99299.59
2024-03-05T09:34:33.936Z,99297.66
2024-03-05T09:37:01.389Z,99302.25
2024-03-05T09:39:30.705Z,99309.19
2024-03-05T09:42:00.328Z,99307.91
2024-03-05T09:44:27.423Z,99310.19
2024-03-05T09:46:55.302Z,99310.78
2024-03-05T09:49:25.815Z,99312.41
2024-03-05T09:51:56.711Z,99316.66
2024-03-05T09:54:24.119Z,99315.44
2024-03-05T09:56:54.345Z,99307.28
2024-03-05T09:59:21.883Z,99311.91
2024-03-05T10:01:50.965Z,99313.00
2024-03-05T10:04:18.406Z,99315.69
2024-03-05T10:06:51.838Z,99320.34
2024-03-05T10:09:20.472Z,99312.72
2024-03-05T10:11:50.131Z,99311.31
2024-03-05T10:14:16.985Z,99311.69
2024-03-05T10:16:47.188Z,99307.78
2024-03-05T10:19:18.213Z,99305.97
2024-03-05T10:21:47.731Z,99303.47
2024-03-05T10:24:15.255Z,99307.38
2024-03-05T10:26:42.491Z,99303.00
2024-03-05T10:29:10.691Z,99306.69
2024-03-05T10:31:44.140Z,99305.09
2024-03-05T10:34:11.530Z,99305.75
2024-03-05T10:36:46.381Z,99309.84
2024-03-05T10:39:14.115Z,99308.16
2024-03-05T10:41:47.443Z,99310.88
2024-03-05T10:44:21.089Z,99300.34
2024-03-05T10:46:51.348Z,99306.44
2024-03-05T10:49:21.036Z,99303.84
2024-03-05T10:51:48.844Z,99305.00
2024-03-05T10:54:15.760Z,99303.72
2024-03-05T10:56:44.890Z,99299.66
2024-03-05T10:59:31.391Z,99300.41
2024-03-05T11:02:00.040Z,99305.41
2024-03-05T11:04:28.495Z,99301.16
2024-03-05T11:06:56.864Z,99296.13
2024-03-05T11:09:24.852Z,99294.84
2024-03-05T11:12:01.946Z,99294.09
2024-03-05T11:14:30.548Z,99294.09
2024-03-05T11:17:01.296Z,99294.09
2024-03-05T11:19:28.501Z,99297.44
2024-03-05T11:21:56.287Z,99293.72
2024-03-05T11:24:26.868Z,99300.03
2024-03-05T11:27:13.049Z,99298.19
2024-03-05T11:29:42.800Z,99290.41
2024-03-05T11:32:11.416Z,99292.78
2024-03-05T11:34:46.462Z,99286.47
2024-03-05T11:37:16.530Z,99281.09
2024-03-05T11:39:44.052Z,99286.84
2024-03-05T11:42:20.904Z,99289.84
2024-03-05T11:44:47.867Z,99288.31
2024-03-05T11:47:22.418Z,99294.63
2024-03-05T11:49:49.765Z,99295.38
2024-03-05T11:52:19.851Z,99299.03
2024-03-05T11:54:57.097Z,99296.13
2024-03-05T11:57:24.670Z,99298.47
2024-03-05T11:59:51.617Z,99293.53
2024-03-05T12:02:19.007Z,99298.75
2024-03-05T12:04:50.430Z,99297.25
2024-03-05T12:07:18.660Z,99292.41
2024-03-05T12:09:45.733Z,99288.69
2024-03-05T12:12:17.813Z,99284.81
2024-03-05T12:14:57.267Z,99290.75
2024-03-05T12:17:27.677Z,99281.97
2024-03-05T12:19:59.186Z,99287.88
2024-03-05T12:22:29.230Z,99286.94
2024-03-05T12:25:01.141Z,99293.59
2024-03-05T12:27:28.800Z,99291.00
2024-03-05T12:29:57.106Z,99291.75
2024-03-05T12:32:26.955Z,99289.81
2024-03-05T12:34:55.952Z,99291.78
2024-03-05T12:37:25.364Z,99281.03
2024-03-05T12:39:59.317Z,99290.22
2024-03-05T12:42:26.650Z,99288.56
2024-03-05T12:45:04.045Z,99290.34
2024-03-05T12:47:32.628Z,99290.31
2024-03-05T12:50:03.270Z,99291.25
2024-03-05T12:52:33.349Z,99289.34
2024-03-05T12:55:01.653Z,99291.25
2024-03-05T12:57:30.668Z,99300.22
2024-03-05T13:00:01.819Z,99299.38
2024-03-05T13:02:29.904Z,99289.38
2024-03-05T13:04:59.314Z,99291.41
2024-03-05T13:07:27.784Z,99294.69
2024-03-05T13:09:55.396Z,99294.72
2024-03-05T13:12:24.499Z,99296.41
2024-03-05T13:14:51.779Z,99293.19
2024-03-05T13:17:19.158Z,99289.91
2024-03-05T13:19:46.565Z,99295.88
2024-03-05T13:22:14.532Z,99288.09
2024-03-05T13:24:42.027Z,99292.66
2024-03-05T13:27:09.424Z,99290.28
2024-03-05T13:29:37.195Z,99296.78
2024-03-05T13:32:07.760Z,99295.53
2024-03-05T13:34:35.054Z,99297.03
2024-03-05T13:37:02.491Z,99297.78
2024-03-05T13:39:29.390Z,99293.50
2024-03-05T13:41:56.942Z,99299.47
2024-03-05T13:44:24.746Z,99299.63
2024-03-05T13:46:53.377Z,99299.41
2024-03-05T13:49:21.650Z,99296.59
2024-03-05T13:51:52.630Z,99296.41
2024-03-05T13:54:20.582Z,99300.69
2024-03-05T13:56:48.038Z,99295.09
2024-03-05T13:59:15.196Z,99301.06
2024-03-05T14:01:42.888Z,99292.53
2024-03-05T14:04:12.929Z,99296.59
2024-03-05T14:06:40.544Z,99301.56
2024-03-05T14:09:10.521Z,99309.00
2024-03-05T14:11:42.145Z,99306.38
2024-03-05T14:14:18.017Z,99313.66
2024-03-05T14:16:48.535Z,99310.66
2024-03-05T14:19:15.782Z,99307.16
2024-03-05T14:21:43.068Z,99315.53
2024-03-05T14:24:14.103Z,99317.22
2024-03-05T14:26:43.215Z,99310.03
2024-03-05T14:29:10.812Z,99312.97
2024-03-05T14:31:38.310Z,99316.34
2024-03-05T14:34:05.714Z,99321.16
2024-03-05T14:36:33.084Z,99322.41
2024-03-05T14:39:03.670Z,99319.38
2024-03-05T14:41:30.972Z,99318.03
2024-03-05T14:43:57.996Z,99320.84
2024-03-05T14:46:26.171Z,99323.06
2024-03-05T14:48:53.094Z,99317.41
2024-03-05T14:51:20.505Z,99319.22
2024-03-05T14:53:48.408Z,99323.00
2024-03-05T14:56:18.079Z,99326.28
2024-03-05T14:58:45.496Z,99323.84
2024-03-05T15:01:12.712Z,99327.34
2024-03-05T15:03:42.075Z,99329.78
2024-03-05T15:06:10.402Z,99327.75
2024-03-05T15:08:40.394Z,99329.34
2024-03-05T15:11:11.214Z,99325.81
2024-03-05T15:13:38.511Z,99327.34
2024-03-05T15:16:09.065Z,99331.50
2024-03-05T15:18:36.731Z,99328.22
2024-03-05T15:21:15.580Z,99328.28
2024-03-05T15:23:42.853Z,99332.63
2024-03-05T15:26:13.192Z,99344.41
2024-03-05T15:28:42.251Z,99330.28
2024-03-05T15:31:12.675Z,99342.31
2024-03-05T15:33:40.001Z,99350.31
2024-03-05T15:36:07.644Z,99348.34
2024-03-05T15:38:35.483Z,99345.25
2024-03-05T15:41:04.196Z,99345.97
2024-03-05T15:43:32.706Z,99350.72
2024-03-05T15:46:00.055Z,99353.28
2024-03-05T15:48:27.110Z,99367.63
2024-03-05T15:50:54.531Z,99364.91
2024-03-05T15:53:24.309Z,99359.56
2024-03-05T15:56:05.672Z,99369.34
2024-03-05T15:58:45.095Z,99379.41
2024-03-05T16:01:13.187Z,99376.66
2024-03-05T16:03:57.168Z,99380.94
2024-03-05T16:06:30.690Z,99383.91
2024-03-05T16:08:58.929Z,99379.75
2024-03-05T16:11:26.825Z,99380.94
2024-03-05T16:13:55.137Z,99378.47
2024-03-05T16:16:24.882Z,99389.88
2024-03-05T16:18:52.155Z,99397.53
2024-03-05T16:21:19.653Z,99388.28
2024-03-05T16:23:47.182Z,99398.91
2024-03-05T16:26:14.584Z,99402.00
2024-03-05T16:28:41.553Z,99403.81
2024-03-05T16:31:13.142Z,99402.94
2024-03-05T16:33:42.473Z,99396.78
2024-03-05T16:36:09.704Z,99403.25
2024-03-05T16:38:37.675Z,99411.75
2024-03-05T16:41:07.441Z,99407.78
2024-03-05T16:43:34.526Z,99409.75
2024-03-05T16:46:02.150Z,99410.38
2024-03-05T16:48:29.102Z,99418.66
2024-03-05T16:50:58.107Z,99420.22
2024-03-05T16:53:25.516Z,99418.53
2024-03-05T16:55:52.971Z,99415.31
2024-03-05T16:58:20.211Z,99432.75
2024-03-05T17:00:56.364Z,99436.50
2024-03-05T17:03:25.785Z,99441.50
2024-03-05T17:05:54.811Z,99439.50
2024-03-05T17:08:22.184Z,99440.75
2024-03-05T17:10:51.429Z,99445.31
2024-03-05T17:13:27.684Z,99445.31
2024-03-05T17:16:01.555Z,99449.94
2024-03-05T17:18:32.019Z,99445.47
2024-03-05T17:20:59.838Z,99453.53
2024-03-05T17:23:28.011Z,99452.66
2024-03-05T17:25:57.648Z,99458.03
2024-03-05T17:28:27.912Z,99455.91
2024-03-05T17:30:56.053Z,99456.50
2024-03-05T17:33:26.282Z,99459.72
2024-03-05T17:35:56.767Z,99457.28
2024-03-05T17:38:25.025Z,99455.91
2024-03-05T17:40:53.139Z,99455.28
2024-03-05T17:43:20.951Z,99459.94
2024-03-05T17:45:49.309Z,99453.22
2024-03-05T17:48:16.418Z,99456.78
2024-03-05T17:50:46.245Z,99469.16
2024-03-05T17:53:13.989Z,99466.50
2024-03-05T17:55:41.442Z,99472.72
2024-03-05T17:58:09.674Z,99472.72
2024-03-05T18:00:46.459Z,99474.97
2024-03-05T18:03:15.862Z,99481.19
2024-03-05T18:05:46.982Z,99471.34
2024-03-05T18:08:14.723Z,99484.59
2024-03-05T18:10:42.891Z,99481.06
2024-03-05T18:13:10.944Z,99479.50
2024-03-05T18:15:38.308Z,99486.25
2024-03-05T18:18:07.896Z,99482.94
2024-03-05T18:20:37.072Z,99489.72
2024-03-05T18:23:06.660Z,99492.00
2024-03-05T18:25:36.303Z,99496.28
2024-03-05T18:28:05.301Z,99499.53
2024-03-05T18:30:36.524Z,99506.38
2024-03-05T18:33:08.429Z,99505.97
2024-03-05T18:35:41.773Z,99502.19
2024-03-05T18:38:21.308Z,99503.94
2024-03-05T18:40:58.424Z,99511.47
2024-03-05T18:43:26.388Z,99506.16
2024-03-05T18:45:54.017Z,99517.91
2024-03-05T18:48:21.949Z,99519.16
2024-03-05T18:50:49.754Z,99521.88
2024-03-05T18:53:17.656Z,99526.16
2024-03-05T18:55:45.989Z,99522.88
2024-03-05T18:58:13.796Z,99528.16
2024-03-05T19:00:43.027Z,99524.13
2024-03-05T19:03:10.700Z,99521.44
2024-03-05T19:05:38.756Z,99530.53
2024-03-05T19:08:07.971Z,99525.28
2024-03-05T19:10:35.962Z,99527.56
2024-03-05T19:13:03.797Z,99523.63
2024-03-05T19:15:31.186Z,99531.75
2024-03-05T19:17:58.813Z,99535.59
2024-03-05T19:20:27.400Z,99534.91
2024-03-05T19:22:57.701Z,99539.44
2024-03-05T19:25:29.394Z,99538.00
2024-03-05T19:27:56.620Z,99539.81
2024-03-05T19:30:24.015Z,99550.13
2024-03-05T19:32:51.001Z,99545.13
2024-03-05T19:35:19.237Z,99542.69
2024-03-05T19:37:47.895Z,99543.72
2024-03-05T19:40:22.804Z,99543.50
2024-03-05T19:43:00.081Z,99548.50
2024-03-05T19:45:27.856Z,99545.00
2024-03-05T19:47:56.002Z,99550.31
2024-03-05T19:50:28.854Z,99550.56
2024-03-05T19:52:58.696Z,99540.84
2024-03-05T19:55:26.489Z,99546.63
2024-03-05T19:57:54.105Z,99538.34
2024-03-05T20:00:25.084Z,99546.38
2024-03-05T20:02:54.782Z,99552.91
2024-03-05T20:05:24.366Z,99550.13
2024-03-05T20:07:53.858Z,99542.88
2024-03-05T20:10:22.857Z,99547.88
2024-03-05T20:12:50.590Z,99543.91
2024-03-05T20:15:18.719Z,99552.16
2024-03-05T20:17:48.157Z,99554.41
2024-03-05T20:20:20.604Z,99563.16
2024-03-05T20:22:49.026Z,99553.41
2024-03-05T20:25:24.263Z,99554.16
2024-03-05T20:27:53.559Z,99550.16
2024-03-05T20:30:24.651Z,99550.16
2024-03-05T20:32:52.960Z,99553.41
2024-03-05T20:35:20.905Z,99559.41
2024-03-05T20:37:50.751Z,99551.16
2024-03-05T20:40:20.403Z,99557.41
2024-03-05T20:42:49.039Z,99553.16
2024-03-05T20:45:19.306Z,99556.66
2024-03-05T20:47:50.324Z,99565.91
2024-03-05T20:50:19.595Z,99562.66
2024-03-05T20:52:47.010Z,99567.66
2024-03-05T20:55:15.042Z,99563.16
2024-03-05T20:57:44.826Z,99564.88
2024-03-05T21:00:16.856Z,99563.13
2024-03-05T21:02:44.719Z,99568.34
2024-03-05T21:05:14.903Z,99565.34
2024-03-05T21:07:44.848Z,99567.31
2024-03-05T21:10:15.427Z,99570.06
2024-03-05T21:12:42.912Z,99566.53
2024-03-05T21:15:11.892Z,99574.81
2024-03-05T21:17:40.037Z,99562.28
2024-03-05T21:20:08.848Z,99566.53
2024-03-05T21:22:36.202Z,99563.75
2024-03-05T21:25:07.557Z,99571.25
2024-03-05T21:27:38.735Z,99556.94
2024-03-05T21:30:07.227Z,99562.19
2024-03-05T21:32:34.706Z,99559.16
2024-03-05T21:35:02.826Z,99567.94
2024-03-05T21:37:30.031Z,99558.91
2024-03-05T21:39:59.744Z,99559.69
2024-03-05T21:42:27.043Z,99568.72
2024-03-05T21:44:54.370Z,99569.22
2024-03-05T21:47:24.910Z,99572.22
2024-03-05T21:49:52.210Z,99564.69
2024-03-05T21:52:19.484Z,99574.75
2024-03-05T21:54:46.895Z,99569.50
2024-03-05T21:57:13.914Z,99575.06
2024-03-05T21:59:41.266Z,99562.31
2024-03-05T22:02:08.233Z,99571.88
2024-03-05T22:04:35.904Z,99562.13
2024-03-05T22:07:03.816Z,99561.41
2024-03-05T22:09:31.140Z,99564.16
2024-03-05T22:11:59.637Z,99570.19
2024-03-05T22:14:31.112Z,99572.19
2024-03-05T22:16:58.091Z,99572.91
2024-03-05T22:19:26.161Z,99563.41
2024-03-05T22:21:53.319Z,99573.41
2024-03-05T22:24:21.228Z,99572.88
2024-03-05T22:26:48.372Z,99571.63
2024-03-05T22:29:15.689Z,99572.13
2024-03-05T22:31:45.356Z,99558.34
2024-03-05T22:34:14.926Z,99561.31
2024-03-05T22:36:41.973Z,99558.31
2024-03-05T22:39:09.221Z,99560.03
2024-03-05T22:41:36.537Z,99566.25
2024-03-05T22:44:04.096Z,99576.44
2024-03-05T22:46:31.109Z,99566.44
2024-03-05T22:48:58.321Z,99570.19
2024-03-05T22:51:25.828Z,99571.16
2024-03-05T22:53:55.612Z,99575.59
2024-03-05T22:56:22.518Z,99582.13
2024-03-05T22:58:49.789Z,99577.13
2024-03-05T23:01:17.367Z,99581.91
2024-03-05T23:03:45.115Z,99586.19
2024-03-05T23:06:18.610Z,99585.72
2024-03-05T23:08:48.925Z,99587.00
2024-03-05T23:11:16.421Z,99585.78
2024-03-05T23:13:43.926Z,99576.97
2024-03-05T23:16:10.859Z,99582.19
2024-03-05T23:18:42.166Z,99586.16
2024-03-05T23:21:11.918Z,99588.88
2024-03-05T23:23:43.710Z,99593.84
2024-03-05T23:26:10.921Z,99594.06
2024-03-05T23:28:39.238Z,99590.06
2024-03-05T23:31:11.715Z,99586.56
2024-03-05T23:33:39.042Z,99596.81
2024-03-05T23:36:06.486Z,99593.31
2024-03-05T23:38:34.110Z,99598.56
2024-03-05T23:41:01.333Z,99594.31
2024-03-05T23:43:31.236Z,99595.03
2024-03-05T23:45:58.361Z,99600.50
2024-03-05T23:48:25.910Z,99588.72
2024-03-05T23:50:52.870Z,99598.69
2024-03-05T23:53:20.336Z,99594.44
2024-03-05T23:55:47.356Z,99598.94
2024-03-05T23:58:14.774Z,99602.97
